sensor_id;sensor_type;location;lat;lon;timestamp;pressure;altitude;pressure_sealevel;temperature;humidity
69187;BME280;56301;56.864;60.554;2022-10-16T00:02:02;98902.44;;;24.97;51.27
69187;BME280;56301;56.864;60.554;2022-10-16T00:04:24;98898.72;;;24.98;50.84
69187;BME280;56301;56.864;60.554;2022-10-16T00:06:46;98899.75;;;24.97;50.92
69187;BME280;56301;56.864;60.554;2022-10-16T00:09:09;98897.03;;;24.97;51.41
69187;BME280;56301;56.864;60.554;2022-10-16T00:11:32;98893.28;;;24.98;51.24
69187;BME280;56301;56.864;60.554;2022-10-16T00:13:56;98906.00;;;24.97;51.41
69187;BME280;56301;56.864;60.554;2022-10-16T00:16:19;98899.56;;;24.98;51.47
69187;BME280;56301;56.864;60.554;2022-10-16T00:18:42;98899.75;;;24.97;50.51
69187;BME280;56301;56.864;60.554;2022-10-16T00:21:15;98909.72;;;24.96;50.26
69187;BME280;56301;56.864;60.554;2022-10-16T00:23:38;98900.09;;;24.94;50.81
69187;BME280;56301;56.864;60.554;2022-10-16T00:26:05;98909.94;;;24.95;50.78
69187;BME280;56301;56.864;60.554;2022-10-16T00:28:28;98918.03;;;24.95;50.63
69187;BME280;56301;56.864;60.554;2022-10-16T00:30:50;98919.03;;;24.94;50.79
69187;BME280;56301;56.864;60.554;2022-10-16T00:33:13;98921.59;;;24.95;50.37
69187;BME280;56301;56.864;60.554;2022-10-16T00:35:35;98925.13;;;24.96;50.23
69187;BME280;56301;56.864;60.554;2022-10-16T00:37:57;98919.72;;;24.96;50.86
69187;BME280;56301;56.864;60.554;2022-10-16T00:40:23;98923.47;;;24.95;50.86
69187;BME280;56301;56.864;60.554;2022-10-16T00:42:45;98928.88;;;24.95;50.86
69187;BME280;56301;56.864;60.554;2022-10-16T00:45:08;98925.28;;;24.94;50.50
69187;BME280;56301;56.864;60.554;2022-10-16T00:47:35;98923.25;;;24.96;50.60
69187;BME280;56301;56.864;60.554;2022-10-16T00:50:00;98927.00;;;24.95;50.46
69187;BME280;56301;56.864;60.554;2022-10-16T00:52:24;98931.59;;;24.95;50.36
69187;BME280;56301;56.864;60.554;2022-10-16T00:54:46;98927.16;;;24.94;51.19
69187;BME280;56301;56.864;60.554;2022-10-16T00:57:09;98928.88;;;24.95;50.73
69187;BME280;56301;56.864;60.554;2022-10-16T00:59:36;98935.97;;;24.96;50.81
69187;BME280;56301;56.864;60.554;2022-10-16T01:01:59;98929.88;;;24.94;51.07
69187;BME280;56301;56.864;60.554;2022-10-16T01:04:23;98931.59;;;24.95;51.02
69187;BME280;56301;56.864;60.554;2022-10-16T01:09:16;98931.59;;;24.95;51.07
69187;BME280;56301;56.864;60.554;2022-10-16T01:14:28;98933.41;;;24.94;51.36
69187;BME280;56301;56.864;60.554;2022-10-16T01:17:40;98933.63;;;24.93;51.66
69187;BME280;56301;56.864;60.554;2022-10-16T01:20:00;98932.59;;;24.94;51.37
69187;BME280;56301;56.864;60.554;2022-10-16T01:22:19;98939.69;;;24.95;51.04
69187;BME280;56301;56.864;60.554;2022-10-16T01:24:48;98942.41;;;24.95;50.84
69187;BME280;56301;56.864;60.554;2022-10-16T01:27:12;98939.69;;;24.95;51.16
69187;BME280;56301;56.864;60.554;2022-10-16T01:32:12;98948.66;;;24.95;50.47
69187;BME280;56301;56.864;60.554;2022-10-16T01:34:38;98948.81;;;24.94;50.99
69187;BME280;56301;56.864;60.554;2022-10-16T01:37:12;98943.41;;;24.94;51.33
69187;BME280;56301;56.864;60.554;2022-10-16T01:39:37;98945.28;;;24.93;50.53
69187;BME280;56301;56.864;60.554;2022-10-16T01:42:04;98944.44;;;24.93;50.54
69187;BME280;56301;56.864;60.554;2022-10-16T01:44:31;98945.13;;;24.95;50.58
69187;BME280;56301;56.864;60.554;2022-10-16T01:46:54;98948.81;;;24.94;50.39
69187;BME280;56301;56.864;60.554;2022-10-16T01:49:17;98946.31;;;24.92;51.13
69187;BME280;56301;56.864;60.554;2022-10-16T01:51:41;98944.25;;;24.94;50.47
69187;BME280;56301;56.864;60.554;2022-10-16T01:54:06;98947.81;;;24.95;50.18
69187;BME280;56301;56.864;60.554;2022-10-16T01:56:30;98945.75;;;24.97;50.15
69187;BME280;56301;56.864;60.554;2022-10-16T01:58:55;98951.53;;;24.94;50.64
69187;BME280;56301;56.864;60.554;2022-10-16T02:01:20;98951.72;;;24.92;50.87
69187;BME280;56301;56.864;60.554;2022-10-16T02:03:43;98952.38;;;24.94;50.78
69187;BME280;56301;56.864;60.554;2022-10-16T02:06:07;98955.94;;;24.95;51.11
69187;BME280;56301;56.864;60.554;2022-10-16T02:08:29;98951.84;;;24.99;49.94
69187;BME280;56301;56.864;60.554;2022-10-16T02:10:52;98958.94;;;25.00;49.90
69187;BME280;56301;56.864;60.554;2022-10-16T02:13:22;98960.63;;;25.01;49.65
69187;BME280;56301;56.864;60.554;2022-10-16T02:15:46;98960.25;;;25.04;51.48
69187;BME280;56301;56.864;60.554;2022-10-16T02:18:08;98963.69;;;24.98;50.30
69187;BME280;56301;56.864;60.554;2022-10-16T02:20:33;98962.34;;;24.94;50.38
69187;BME280;56301;56.864;60.554;2022-10-16T02:22:57;98960.63;;;25.01;50.26
69187;BME280;56301;56.864;60.554;2022-10-16T02:25:34;98969.75;;;25.00;50.28
69187;BME280;56301;56.864;60.554;2022-10-16T02:28:03;98969.28;;;24.96;49.85
69187;BME280;56301;56.864;60.554;2022-10-16T02:33:00;98972.47;;;25.00;50.74
69187;BME280;56301;56.864;60.554;2022-10-16T02:35:24;98977.22;;;24.98;49.96
69187;BME280;56301;56.864;60.554;2022-10-16T02:37:47;98969.09;;;24.98;49.84
69187;BME280;56301;56.864;60.554;2022-10-16T02:40:11;98969.97;;;24.98;49.99
69187;BME280;56301;56.864;60.554;2022-10-16T02:42:35;98977.06;;;25.00;50.15
69187;BME280;56301;56.864;60.554;2022-10-16T02:44:58;98979.75;;;25.00;49.69
69187;BME280;56301;56.864;60.554;2022-10-16T02:47:21;98971.78;;;24.98;50.24
69187;BME280;56301;56.864;60.554;2022-10-16T02:49:43;98979.91;;;24.98;49.77
69187;BME280;56301;56.864;60.554;2022-10-16T02:52:05;98981.44;;;25.01;49.95
69187;BME280;56301;56.864;60.554;2022-10-16T02:54:28;98977.53;;;25.03;50.02
69187;BME280;56301;56.864;60.554;2022-10-16T02:56:50;98977.34;;;25.05;49.39
69187;BME280;56301;56.864;60.554;2022-10-16T02:59:13;98975.47;;;25.05;50.01
69187;BME280;56301;56.864;60.554;2022-10-16T03:01:36;98983.44;;;25.07;49.72
69187;BME280;56301;56.864;60.554;2022-10-16T03:03:58;98984.47;;;25.06;49.78
69187;BME280;56301;56.864;60.554;2022-10-16T03:06:21;98984.47;;;25.06;49.96
69187;BME280;56301;56.864;60.554;2022-10-16T03:08:43;98988.66;;;25.08;49.64
69187;BME280;56301;56.864;60.554;2022-10-16T03:11:05;98990.00;;;25.12;49.52
69187;BME280;56301;56.864;60.554;2022-10-16T03:13:28;98992.91;;;25.11;49.63
69187;BME280;56301;56.864;60.554;2022-10-16T03:15:50;98995.41;;;25.12;50.30
69187;BME280;56301;56.864;60.554;2022-10-16T03:18:12;98991.19;;;25.10;49.30
69187;BME280;56301;56.864;60.554;2022-10-16T03:20:35;98991.34;;;25.08;50.01
69187;BME280;56301;56.864;60.554;2022-10-16T03:22:57;98997.47;;;25.10;50.42
69187;BME280;56301;56.864;60.554;2022-10-16T03:25:20;99000.69;;;25.06;49.96
69187;BME280;56301;56.864;60.554;2022-10-16T03:27:42;98995.59;;;25.11;49.50
69187;BME280;56301;56.864;60.554;2022-10-16T03:30:05;99008.13;;;25.12;49.71
69187;BME280;56301;56.864;60.554;2022-10-16T03:32:28;98997.47;;;25.10;50.15
69187;BME280;56301;56.864;60.554;2022-10-16T03:34:50;99007.44;;;25.10;49.00
69187;BME280;56301;56.864;60.554;2022-10-16T03:37:12;99006.59;;;25.09;49.33
69187;BME280;56301;56.864;60.554;2022-10-16T03:39:35;99007.94;;;25.13;49.47
69187;BME280;56301;56.864;60.554;2022-10-16T03:41:57;99016.06;;;25.13;49.34
69187;BME280;56301;56.864;60.554;2022-10-16T03:44:20;99016.22;;;25.12;49.99
69187;BME280;56301;56.864;60.554;2022-10-16T03:46:43;99010.66;;;25.13;49.49
69187;BME280;56301;56.864;60.554;2022-10-16T03:49:05;99014.00;;;25.15;50.03
69187;BME280;56301;56.864;60.554;2022-10-16T03:51:28;99015.03;;;25.14;49.79
69187;BME280;56301;56.864;60.554;2022-10-16T03:53:50;99013.84;;;25.17;50.22
69187;BME280;56301;56.864;60.554;2022-10-16T03:56:13;99019.28;;;25.17;49.48
69187;BME280;56301;56.864;60.554;2022-10-16T03:58:35;99020.47;;;25.14;50.24
69187;BME280;56301;56.864;60.554;2022-10-16T04:00:57;99024.19;;;25.13;49.84
69187;BME280;56301;56.864;60.554;2022-10-16T04:03:20;99027.06;;;25.12;49.96
69187;BME280;56301;56.864;60.554;2022-10-16T04:05:42;99026.22;;;25.11;49.86
69187;BME280;56301;56.864;60.554;2022-10-16T04:08:05;99026.22;;;25.11;49.76
69187;BME280;56301;56.864;60.554;2022-10-16T04:10:28;99037.06;;;25.11;49.66
69187;BME280;56301;56.864;60.554;2022-10-16T04:12:50;99028.78;;;25.13;49.42
69187;BME280;56301;56.864;60.554;2022-10-16T04:15:12;99027.91;;;25.12;49.69
69187;BME280;56301;56.864;60.554;2022-10-16T04:17:35;99027.56;;;25.15;50.17
69187;BME280;56301;56.864;60.554;2022-10-16T04:19:57;99034.19;;;25.13;49.95
69187;BME280;56301;56.864;60.554;2022-10-16T04:22:20;99041.78;;;25.17;49.28
69187;BME280;56301;56.864;60.554;2022-10-16T04:24:42;99035.69;;;25.15;49.26
69187;BME280;56301;56.864;60.554;2022-10-16T04:27:04;99043.44;;;25.18;49.43
69187;BME280;56301;56.864;60.554;2022-10-16T04:29:27;99042.13;;;25.14;49.99
69187;BME280;56301;56.864;60.554;2022-10-16T04:31:49;99045.03;;;25.13;50.07
69187;BME280;56301;56.864;60.554;2022-10-16T04:34:12;99044.34;;;25.11;49.95
69187;BME280;56301;56.864;60.554;2022-10-16T04:36:34;99051.28;;;25.13;49.98
69187;BME280;56301;56.864;60.554;2022-10-16T04:38:56;99052.94;;;25.14;49.92
69187;BME280;56301;56.864;60.554;2022-10-16T04:41:19;99050.91;;;25.16;49.83
69187;BME280;56301;56.864;60.554;2022-10-16T04:43:41;99057.34;;;25.15;50.57
69187;BME280;56301;56.864;60.554;2022-10-16T04:46:04;99058.38;;;25.14;50.03
69187;BME280;56301;56.864;60.554;2022-10-16T04:48:26;99061.28;;;25.13;50.08
69187;BME280;56301;56.864;60.554;2022-10-16T04:50:49;99058.38;;;25.14;49.82
69187;BME280;56301;56.864;60.554;2022-10-16T04:53:11;99062.94;;;25.14;50.52
69187;BME280;56301;56.864;60.554;2022-10-16T04:55:34;99063.59;;;25.16;50.23
69187;BME280;56301;56.864;60.554;2022-10-16T04:57:56;99059.41;;;25.13;49.80
69187;BME280;56301;56.864;60.554;2022-10-16T05:00:19;99060.41;;;25.12;49.75
69187;BME280;56301;56.864;60.554;2022-10-16T05:02:42;99058.38;;;25.14;50.13
69187;BME280;56301;56.864;60.554;2022-10-16T05:05:04;99055.47;;;25.16;49.69
69187;BME280;56301;56.864;60.554;2022-10-16T05:07:27;99044.66;;;25.08;49.09
69187;BME280;56301;56.864;60.554;2022-10-16T05:09:49;99061.38;;;25.19;49.54
69187;BME280;56301;56.864;60.554;2022-10-16T05:12:12;99050.53;;;25.19;49.29
69187;BME280;56301;56.864;60.554;2022-10-16T05:14:34;99057.81;;;25.19;49.96
69187;BME280;56301;56.864;60.554;2022-10-16T05:16:57;99055.94;;;25.19;49.61
69187;BME280;56301;56.864;60.554;2022-10-16T05:19:19;99059.69;;;25.18;49.83
69187;BME280;56301;56.864;60.554;2022-10-16T05:21:42;99055.31;;;25.17;50.17
69187;BME280;56301;56.864;60.554;2022-10-16T05:24:04;99063.25;;;25.19;50.34
69187;BME280;56301;56.864;60.554;2022-10-16T05:26:26;99066.13;;;25.17;50.12
69187;BME280;56301;56.864;60.554;2022-10-16T05:28:49;99059.03;;;25.16;49.69
69187;BME280;56301;56.864;60.554;2022-10-16T05:31:11;99060.88;;;25.16;50.37
69187;BME280;56301;56.864;60.554;2022-10-16T05:33:34;99063.44;;;25.17;50.06
69187;BME280;56301;56.864;60.554;2022-10-16T05:35:56;99060.72;;;25.17;50.62
69187;BME280;56301;56.864;60.554;2022-10-16T05:38:19;99073.44;;;25.17;49.80
69187;BME280;56301;56.864;60.554;2022-10-16T05:40:42;99068.00;;;25.17;49.57
69187;BME280;56301;56.864;60.554;2022-10-16T05:43:04;99074.25;;;25.17;50.07
69187;BME280;56301;56.864;60.554;2022-10-16T05:45:27;99063.44;;;25.17;49.65
69187;BME280;56301;56.864;60.554;2022-10-16T05:47:49;99070.72;;;25.17;50.10
69187;BME280;56301;56.864;60.554;2022-10-16T05:50:11;99069.19;;;25.14;49.69
69187;BME280;56301;56.864;60.554;2022-10-16T05:52:34;99076.66;;;25.12;49.72
69187;BME280;56301;56.864;60.554;2022-10-16T05:54:56;99078.50;;;25.12;50.36
69187;BME280;56301;56.864;60.554;2022-10-16T05:57:19;99082.94;;;25.13;50.13
69187;BME280;56301;56.864;60.554;2022-10-16T05:59:41;99086.63;;;25.12;50.11
69187;BME280;56301;56.864;60.554;2022-10-16T06:02:04;99086.81;;;25.10;49.74
69187;BME280;56301;56.864;60.554;2022-10-16T06:04:26;99083.09;;;25.11;50.18
69187;BME280;56301;56.864;60.554;2022-10-16T06:06:49;99089.53;;;25.10;49.40
69187;BME280;56301;56.864;60.554;2022-10-16T06:09:11;99087.81;;;25.09;49.59
69187;BME280;56301;56.864;60.554;2022-10-16T06:11:33;99091.22;;;25.11;49.85
69187;BME280;56301;56.864;60.554;2022-10-16T06:13:57;99091.22;;;25.11;50.35
69187;BME280;56301;56.864;60.554;2022-10-16T06:16:19;99089.53;;;25.10;49.88
69187;BME280;56301;56.864;60.554;2022-10-16T06:18:42;99093.91;;;25.11;49.81
69187;BME280;56301;56.864;60.554;2022-10-16T06:21:08;99091.22;;;25.11;49.44
69187;BME280;56301;56.864;60.554;2022-10-16T06:23:31;99093.91;;;25.11;50.29
69187;BME280;56301;56.864;60.554;2022-10-16T06:25:54;99097.31;;;25.13;50.25
69187;BME280;56301;56.864;60.554;2022-10-16T06:28:16;99099.66;;;25.16;49.91
69187;BME280;56301;56.864;60.554;2022-10-16T06:30:38;99092.72;;;25.14;49.89
69187;BME280;56301;56.864;60.554;2022-10-16T06:33:01;99102.53;;;25.15;50.08
69187;BME280;56301;56.864;60.554;2022-10-16T06:35:23;99102.38;;;25.16;50.24
69187;BME280;56301;56.864;60.554;2022-10-16T06:37:46;99106.41;;;25.20;50.41
69187;BME280;56301;56.864;60.554;2022-10-16T06:40:09;99099.91;;;25.30;50.28
69187;BME280;56301;56.864;60.554;2022-10-16T06:42:32;99103.16;;;25.25;49.71
69187;BME280;56301;56.864;60.554;2022-10-16T06:44:55;99093.16;;;25.26;50.43
69187;BME280;56301;56.864;60.554;2022-10-16T06:47:17;99089.78;;;25.24;50.08
69187;BME280;56301;56.864;60.554;2022-10-16T06:49:40;99100.59;;;25.24;50.05
69187;BME280;56301;56.864;60.554;2022-10-16T06:52:02;99082.88;;;25.21;49.72
69187;BME280;56301;56.864;60.554;2022-10-16T06:54:25;99097.03;;;25.31;50.27
69187;BME280;56301;56.864;60.554;2022-10-16T06:56:48;99104.78;;;25.34;49.63
69187;BME280;56301;56.864;60.554;2022-10-16T06:59:11;99091.22;;;25.34;50.14
69187;BME280;56301;56.864;60.554;2022-10-16T07:01:33;99104.25;;;25.39;50.14
69187;BME280;56301;56.864;60.554;2022-10-16T07:03:55;99105.50;;;25.51;50.36
69187;BME280;56301;56.864;60.554;2022-10-16T07:06:19;99106.94;;;25.62;50.40
69187;BME280;56301;56.864;60.554;2022-10-16T07:08:42;99105.88;;;25.71;50.11
69187;BME280;56301;56.864;60.554;2022-10-16T07:11:05;99099.56;;;25.79;49.30
69187;BME280;56301;56.864;60.554;2022-10-16T07:13:28;99105.63;;;25.81;49.97
69187;BME280;56301;56.864;60.554;2022-10-16T07:15:51;99107.34;;;25.82;50.02
69187;BME280;56301;56.864;60.554;2022-10-16T07:18:13;99104.09;;;25.86;50.65
69187;BME280;56301;56.864;60.554;2022-10-16T07:20:36;99112.03;;;25.88;53.96
69187;BME280;56301;56.864;60.554;2022-10-16T07:22:58;99110.97;;;25.89;54.14
69187;BME280;56301;56.864;60.554;2022-10-16T07:25:21;99112.50;;;25.91;55.07
69187;BME280;56301;56.864;60.554;2022-10-16T07:27:44;99106.50;;;25.96;54.13
69187;BME280;56301;56.864;60.554;2022-10-16T07:30:06;99115.91;;;25.62;49.76
69187;BME280;56301;56.864;60.554;2022-10-16T07:32:29;99104.59;;;25.36;49.30
69187;BME280;56301;56.864;60.554;2022-10-16T07:34:52;99111.69;;;25.37;47.77
69187;BME280;56301;56.864;60.554;2022-10-16T07:37:14;99117.78;;;25.39;48.37
69187;BME280;56301;56.864;60.554;2022-10-16T07:39:37;99121.69;;;25.36;49.78
69187;BME280;56301;56.864;60.554;2022-10-16T07:41:59;99121.47;;;25.46;49.05
69187;BME280;56301;56.864;60.554;2022-10-16T07:44:22;99117.47;;;25.34;50.26
69187;BME280;56301;56.864;60.554;2022-10-16T07:46:45;99122.28;;;25.24;48.92
69187;BME280;56301;56.864;60.554;2022-10-16T07:49:08;99132.63;;;25.20;49.62
69187;BME280;56301;56.864;60.554;2022-10-16T07:51:31;99123.97;;;25.25;50.24
69187;BME280;56301;56.864;60.554;2022-10-16T07:53:53;99122.41;;;25.30;48.77
69187;BME280;56301;56.864;60.554;2022-10-16T07:56:16;99128.56;;;25.24;48.47
69187;BME280;56301;56.864;60.554;2022-10-16T07:58:39;99135.31;;;25.20;47.82
69187;BME280;56301;56.864;60.554;2022-10-16T08:01:05;99131.75;;;25.28;48.23
69187;BME280;56301;56.864;60.554;2022-10-16T08:03:28;99132.72;;;25.35;47.89
69187;BME280;56301;56.864;60.554;2022-10-16T08:05:50;99137.75;;;25.38;48.09
69187;BME280;56301;56.864;60.554;2022-10-16T08:08:13;99134.06;;;25.39;48.69
69187;BME280;56301;56.864;60.554;2022-10-16T08:10:36;99129.47;;;25.39;49.58
69187;BME280;56301;56.864;60.554;2022-10-16T08:12:58;99135.06;;;25.38;48.18
69187;BME280;56301;56.864;60.554;2022-10-16T08:15:21;99139.63;;;25.37;47.68
69187;BME280;56301;56.864;60.554;2022-10-16T08:17:43;99149.63;;;25.37;47.64
69187;BME280;56301;56.864;60.554;2022-10-16T08:20:06;99139.81;;;25.36;47.58
69187;BME280;56301;56.864;60.554;2022-10-16T08:22:28;99145.25;;;25.36;47.73
69187;BME280;56301;56.864;60.554;2022-10-16T08:24:51;99147.59;;;25.39;46.69
69187;BME280;56301;56.864;60.554;2022-10-16T08:27:13;99154.63;;;25.48;47.52
69187;BME280;56301;56.864;60.554;2022-10-16T08:29:36;99141.41;;;25.53;47.50
69187;BME280;56301;56.864;60.554;2022-10-16T08:31:59;99146.44;;;25.56;47.90
69187;BME280;56301;56.864;60.554;2022-10-16T08:34:22;99142.13;;;25.47;47.35
69187;BME280;56301;56.864;60.554;2022-10-16T08:36:44;99147.34;;;25.49;47.77
69187;BME280;56301;56.864;60.554;2022-10-16T08:39:07;99144.28;;;25.52;48.83
69187;BME280;56301;56.864;60.554;2022-10-16T08:41:37;99140.25;;;25.48;47.59
69187;BME280;56301;56.864;60.554;2022-10-16T08:48:57;99151.34;;;25.61;47.64
69187;BME280;56301;56.864;60.554;2022-10-16T08:53:55;99150.31;;;25.39;47.41
69187;BME280;56301;56.864;60.554;2022-10-16T08:56:18;99154.34;;;25.43;47.61
69187;BME280;56301;56.864;60.554;2022-10-16T08:58:41;99140.13;;;25.41;47.42
69187;BME280;56301;56.864;60.554;2022-10-16T09:01:04;99150.13;;;25.40;46.22
69187;BME280;56301;56.864;60.554;2022-10-16T09:09:14;99145.19;;;25.44;46.67
69187;BME280;56301;56.864;60.554;2022-10-16T09:11:55;99164.50;;;25.41;46.39
69187;BME280;56301;56.864;60.554;2022-10-16T09:16:34;99163.91;;;25.23;44.57
69187;BME280;56301;56.864;60.554;2022-10-16T09:21:23;99170.59;;;25.04;43.17
69187;BME280;56301;56.864;60.554;2022-10-16T09:23:46;99166.84;;;25.05;42.35
69187;BME280;56301;56.864;60.554;2022-10-16T09:26:09;99158.38;;;25.08;42.23
69187;BME280;56301;56.864;60.554;2022-10-16T09:28:33;99173.47;;;25.02;41.42
69187;BME280;56301;56.864;60.554;2022-10-16T09:30:55;99162.28;;;25.13;42.30
69187;BME280;56301;56.864;60.554;2022-10-16T09:33:19;99179.53;;;25.04;42.21
69187;BME280;56301;56.864;60.554;2022-10-16T09:35:44;99184.63;;;25.07;41.90
69187;BME280;56301;56.864;60.554;2022-10-16T09:38:07;99178.53;;;25.05;41.94
69187;BME280;56301;56.864;60.554;2022-10-16T09:42:54;99179.38;;;25.06;41.77
69187;BME280;56301;56.864;60.554;2022-10-16T09:45:22;99177.69;;;25.05;41.45
69187;BME280;56301;56.864;60.554;2022-10-16T09:47:45;99190.22;;;25.06;41.15
69187;BME280;56301;56.864;60.554;2022-10-16T09:50:24;99189.84;;;25.09;41.63
69187;BME280;56301;56.864;60.554;2022-10-16T09:52:47;99181.59;;;25.10;42.00
69187;BME280;56301;56.864;60.554;2022-10-16T09:55:13;99188.16;;;25.08;41.02
69187;BME280;56301;56.864;60.554;2022-10-16T09:57:36;99189.38;;;25.13;41.65
69187;BME280;56301;56.864;60.554;2022-10-16T09:59:59;99189.19;;;25.15;42.16
69187;BME280;56301;56.864;60.554;2022-10-16T10:02:34;99183.06;;;25.21;41.80
69187;BME280;56301;56.864;60.554;2022-10-16T10:04:57;99188.34;;;25.14;41.13
69187;BME280;56301;56.864;60.554;2022-10-16T10:07:21;99205.44;;;25.07;42.76
69187;BME280;56301;56.864;60.554;2022-10-16T10:09:46;99191.41;;;25.03;41.81
69187;BME280;56301;56.864;60.554;2022-10-16T10:12:17;99194.75;;;25.05;41.44
69187;BME280;56301;56.864;60.554;2022-10-16T10:14:44;99199.69;;;25.10;40.73
69187;BME280;56301;56.864;60.554;2022-10-16T10:19:37;99195.88;;;25.27;41.32
69187;BME280;56301;56.864;60.554;2022-10-16T10:22:00;99203.41;;;25.17;42.48
69187;BME280;56301;56.864;60.554;2022-10-16T10:24:22;99205.38;;;25.23;41.73
69187;BME280;56301;56.864;60.554;2022-10-16T10:26:49;99203.50;;;25.32;42.07
69187;BME280;56301;56.864;60.554;2022-10-16T10:29:16;99202.16;;;25.28;42.40
69187;BME280;56301;56.864;60.554;2022-10-16T10:32:17;99205.72;;;25.28;43.25
69187;BME280;56301;56.864;60.554;2022-10-16T10:39:41;99210.09;;;25.29;43.49
69187;BME280;56301;56.864;60.554;2022-10-16T10:54:39;99226.06;;;25.08;42.88
69187;BME280;56301;56.864;60.554;2022-10-16T10:57:10;99223.72;;;25.05;42.63
69187;BME280;56301;56.864;60.554;2022-10-16T11:05:02;99231.00;;;25.04;42.78
69187;BME280;56301;56.864;60.554;2022-10-16T11:07:35;99228.63;;;25.01;43.84
69187;BME280;56301;56.864;60.554;2022-10-16T11:10:09;99233.19;;;25.01;42.57
69187;BME280;56301;56.864;60.554;2022-10-16T11:12:44;99230.47;;;25.09;43.28
69187;BME280;56301;56.864;60.554;2022-10-16T11:17:42;99234.03;;;25.09;43.66
69187;BME280;56301;56.864;60.554;2022-10-16T11:20:27;99235.06;;;25.00;43.44
69187;BME280;56301;56.864;60.554;2022-10-16T11:22:56;99234.03;;;25.09;43.57
69187;BME280;56301;56.864;60.554;2022-10-16T11:25:29;99239.47;;;25.01;43.69
69187;BME280;56301;56.864;60.554;2022-10-16T11:27:57;99253.69;;;25.03;43.52
69187;BME280;56301;56.864;60.554;2022-10-16T11:30:30;99238.13;;;24.97;43.87
69187;BME280;56301;56.864;60.554;2022-10-16T11:33:08;99243.19;;;25.00;43.50
69187;BME280;56301;56.864;60.554;2022-10-16T11:35:36;99238.47;;;25.02;42.95
69187;BME280;56301;56.864;60.554;2022-10-16T11:38:00;99249.28;;;25.02;43.09
69187;BME280;56301;56.864;60.554;2022-10-16T11:40:31;99237.47;;;24.95;42.69
69187;BME280;56301;56.864;60.554;2022-10-16T11:42:57;99250.69;;;24.82;41.89
69187;BME280;56301;56.864;60.554;2022-10-16T11:47:54;99250.00;;;24.80;43.09
69187;BME280;56301;56.864;60.554;2022-10-16T11:50:23;99252.38;;;24.83;42.73
69187;BME280;56301;56.864;60.554;2022-10-16T11:55:14;99241.38;;;24.84;43.35
69187;BME280;56301;56.864;60.554;2022-10-16T11:57:41;99245.97;;;24.84;43.20
69187;BME280;56301;56.864;60.554;2022-10-16T12:07:39;99237.47;;;24.95;44.81
69187;BME280;56301;56.864;60.554;2022-10-16T12:10:25;99247.41;;;24.94;43.44
69187;BME280;56301;56.864;60.554;2022-10-16T12:12:48;99245.59;;;24.95;43.85
69187;BME280;56301;56.864;60.554;2022-10-16T12:15:29;99249.28;;;25.02;43.54
69187;BME280;56301;56.864;60.554;2022-10-16T12:17:52;99239.31;;;25.03;43.23
69187;BME280;56301;56.864;60.554;2022-10-16T12:20:21;99253.00;;;25.01;44.21
69187;BME280;56301;56.864;60.554;2022-10-16T12:22:48;99248.94;;;24.97;43.51
69187;BME280;56301;56.864;60.554;2022-10-16T12:25:21;99242.50;;;24.98;44.21
69187;BME280;56301;56.864;60.554;2022-10-16T12:27:45;99241.81;;;25.04;44.47
69187;BME280;56301;56.864;60.554;2022-10-16T12:30:15;99237.59;;;25.02;45.49
69187;BME280;56301;56.864;60.554;2022-10-16T12:32:42;99207.53;;;24.88;45.31
69187;BME280;56301;56.864;60.554;2022-10-16T12:35:05;99243.38;;;24.98;45.58
69187;BME280;56301;56.864;60.554;2022-10-16T12:37:38;99245.22;;;24.98;46.15
69187;BME280;56301;56.864;60.554;2022-10-16T12:40:14;99255.03;;;24.99;46.61
69187;BME280;56301;56.864;60.554;2022-10-16T12:42:39;99256.72;;;25.00;45.79
69187;BME280;56301;56.864;60.554;2022-10-16T12:45:12;99258.09;;;24.96;44.86
69187;BME280;56301;56.864;60.554;2022-10-16T12:47:37;99249.47;;;24.92;44.76
69187;BME280;56301;56.864;60.554;2022-10-16T12:49:59;99254.06;;;24.92;44.87
69187;BME280;56301;56.864;60.554;2022-10-16T12:52:27;99250.66;;;24.90;44.87
69187;BME280;56301;56.864;60.554;2022-10-16T12:54:50;99251.34;;;24.92;45.19
69187;BME280;56301;56.864;60.554;2022-10-16T13:10:31;99264.88;;;24.92;45.46
69187;BME280;56301;56.864;60.554;2022-10-16T13:20:46;99272.66;;;24.95;47.71
69187;BME280;56301;56.864;60.554;2022-10-16T13:28:41;99271.97;;;24.93;46.85
69187;BME280;56301;56.864;60.554;2022-10-16T13:31:04;99272.81;;;24.93;46.57
69187;BME280;56301;56.864;60.554;2022-10-16T13:35:50;99267.41;;;24.93;46.35
69187;BME280;56301;56.864;60.554;2022-10-16T13:38:26;99267.41;;;24.93;45.91
69187;BME280;56301;56.864;60.554;2022-10-16T13:40:53;99274.50;;;24.94;45.71
69187;BME280;56301;56.864;60.554;2022-10-16T13:43:17;99282.47;;;24.96;45.77
69187;BME280;56301;56.864;60.554;2022-10-16T13:45:40;99280.91;;;25.02;46.70
69187;BME280;56301;56.864;60.554;2022-10-16T13:48:03;99286.31;;;25.10;46.85
69187;BME280;56301;56.864;60.554;2022-10-16T13:50:26;99276.19;;;25.12;46.61
69187;BME280;56301;56.864;60.554;2022-10-16T13:52:48;99287.84;;;25.12;46.29
69187;BME280;56301;56.864;60.554;2022-10-16T13:55:11;99279.22;;;25.17;46.91
69187;BME280;56301;56.864;60.554;2022-10-16T13:57:34;99294.13;;;25.13;46.54
69187;BME280;56301;56.864;60.554;2022-10-16T13:59:57;99281.59;;;25.12;45.99
69187;BME280;56301;56.864;60.554;2022-10-16T14:02:25;99289.19;;;25.08;46.22
69187;BME280;56301;56.864;60.554;2022-10-16T14:04:48;99284.78;;;25.07;46.95
69187;BME280;56301;56.864;60.554;2022-10-16T14:07:14;99293.94;;;25.06;46.20
69187;BME280;56301;56.864;60.554;2022-10-16T14:09:41;99288.53;;;25.06;46.82
69187;BME280;56301;56.864;60.554;2022-10-16T14:12:07;99279.72;;;25.04;46.64
69187;BME280;56301;56.864;60.554;2022-10-16T14:14:33;99295.44;;;25.09;46.42
69187;BME280;56301;56.864;60.554;2022-10-16T14:16:56;99286.47;;;25.08;46.52